createdAt,value
2018-08-07T00:00:31.946Z,99.90
2018-08-07T00:03:01.032Z,99.90
2018-08-07T00:05:30.062Z,99.90
2018-08-07T00:07:59.235Z,99.90
2018-08-07T00:10:28.354Z,99.90
2018-08-07T00:12:57.378Z,99.90
2018-08-07T00:15:28.239Z,99.90
2018-08-07T00:17:57.352Z,99.90
2018-08-07T00:20:26.460Z,99.90
2018-08-07T00:22:55.503Z,99.90
2018-08-07T00:25:24.568Z,99.90
2018-08-07T00:27:55.072Z,99.90
2018-08-07T00:30:24.080Z,99.90
2018-08-07T00:32:53.132Z,99.90
2018-08-07T00:35:22.211Z,99.90
2018-08-07T00:37:51.284Z,99.90
2018-08-07T00:40:20.328Z,99.90
2018-08-07T00:42:50.042Z,99.90
2018-08-07T00:45:20.584Z,99.90
2018-08-07T00:47:50.133Z,99.90
2018-08-07T00:50:20.889Z,99.90
2018-08-07T00:52:51.119Z,99.90
2018-08-07T00:55:21.754Z,99.90
2018-08-07T00:57:51.626Z,99.90
2018-08-07T01:00:21.173Z,99.90
2018-08-07T01:02:50.126Z,99.90
2018-08-07T01:05:19.660Z,99.90
2018-08-07T01:07:48.827Z,99.90
2018-08-07T01:10:19.289Z,99.90
2018-08-07T01:12:48.793Z,99.90
2018-08-07T01:15:20.344Z,99.90
2018-08-07T01:17:49.720Z,99.90
2018-08-07T01:20:21.805Z,99.90
2018-08-07T01:22:50.814Z,99.90
2018-08-07T01:25:22.247Z,99.90
2018-08-07T01:27:51.748Z,99.90
2018-08-07T01:30:23.521Z,99.90
2018-08-07T01:32:52.856Z,99.90
2018-08-07T01:35:22.128Z,99.90
2018-08-07T01:37:51.080Z,99.90
2018-08-07T01:40:23.379Z,99.90
2018-08-07T01:42:52.534Z,99.90
2018-08-07T01:45:21.677Z,99.90
2018-08-07T01:47:50.860Z,99.90
2018-08-07T01:50:19.772Z,99.90
2018-08-07T01:52:48.720Z,99.90
2018-08-07T01:55:24.364Z,99.90
2018-08-07T01:57:55.260Z,99.90
2018-08-07T02:00:24.683Z,99.90
2018-08-07T02:02:53.783Z,99.90
2018-08-07T02:05:22.746Z,99.90
2018-08-07T02:07:52.810Z,99.90
2018-08-07T02:10:22.245Z,99.90
2018-08-07T02:12:51.278Z,99.90
2018-08-07T02:15:20.307Z,99.90
2018-08-07T02:17:49.642Z,99.90
2018-08-07T02:20:20.947Z,99.90
2018-08-07T02:22:49.963Z,99.90
2018-08-07T02:25:20.846Z,99.90
2018-08-07T02:27:49.811Z,99.90
2018-08-07T02:30:20.836Z,99.90
2018-08-07T02:32:49.726Z,99.90
2018-08-07T02:35:19.410Z,99.90
2018-08-07T02:37:49.399Z,99.90
2018-08-07T02:40:25.040Z,99.90
2018-08-07T02:42:54.245Z,99.90
2018-08-07T02:45:24.045Z,99.90
2018-08-07T02:47:53.142Z,99.90
2018-08-07T02:50:23.468Z,99.90
2018-08-07T02:52:52.456Z,99.90
2018-08-07T02:55:21.474Z,99.90
2018-08-07T02:57:51.648Z,99.90
2018-08-07T03:00:22.504Z,99.90
2018-08-07T03:02:51.627Z,99.90
2018-08-07T03:05:21.599Z,99.90
2018-08-07T03:07:51.081Z,99.90
2018-08-07T03:10:21.581Z,99.90
2018-08-07T03:12:50.579Z,99.90
2018-08-07T03:15:20.568Z,99.90
2018-08-07T03:17:50.011Z,99.90
2018-08-07T03:20:19.302Z,99.90
2018-08-07T03:22:48.524Z,99.90
2018-08-07T03:25:17.801Z,99.90
2018-08-07T03:27:47.080Z,99.90
2018-08-07T03:30:18.672Z,99.90
2018-08-07T03:32:47.986Z,99.90
2018-08-07T03:35:17.240Z,99.90
2018-08-07T03:37:46.349Z,99.90
2018-08-07T03:40:16.918Z,99.90
2018-08-07T03:42:46.161Z,99.90
2018-08-07T03:45:16.232Z,99.90
2018-08-07T03:47:45.908Z,99.90
2018-08-07T03:50:14.967Z,99.90
2018-08-07T03:52:43.955Z,99.90
2018-08-07T03:55:16.630Z,99.90
2018-08-07T03:57:46.248Z,99.90
2018-08-07T04:00:18.957Z,99.90
2018-08-07T04:02:47.994Z,99.90
2018-08-07T04:05:17.592Z,99.90
2018-08-07T04:07:46.961Z,99.90
2018-08-07T04:10:18.484Z,99.90
2018-08-07T04:12:47.449Z,99.90
2018-08-07T04:15:18.354Z,99.90
2018-08-07T04:17:47.297Z,99.90
2018-08-07T04:20:18.773Z,99.90
2018-08-07T04:22:47.634Z,99.90
2018-08-07T04:25:17.382Z,99.90
2018-08-07T04:27:47.344Z,99.90
2018-08-07T04:30:18.932Z,99.90
2018-08-07T04:32:48.702Z,99.90
2018-08-07T04:35:18.093Z,99.90
2018-08-07T04:37:47.223Z,99.90
2018-08-07T04:40:16.395Z,99.90
2018-08-07T04:42:45.395Z,99.90
2018-08-07T04:45:16.334Z,99.90
2018-08-07T04:47:45.991Z,99.90
2018-08-07T04:50:15.069Z,99.90
2018-08-07T04:52:44.420Z,99.90
2018-08-07T04:55:13.632Z,99.90
2018-08-07T04:57:42.777Z,99.90
2018-08-07T05:00:15.256Z,99.90
2018-08-07T05:02:47.146Z,99.90
2018-08-07T05:05:24.133Z,99.90
2018-08-07T05:07:53.376Z,99.90
2018-08-07T05:10:23.186Z,99.90
2018-08-07T05:15:21.955Z,99.90
2018-08-07T05:17:50.992Z,99.90
2018-08-07T05:20:20.137Z,99.90
2018-08-07T05:22:49.129Z,99.90
2018-08-07T05:25:18.518Z,99.90
2018-08-07T05:27:47.540Z,99.90
2018-08-07T05:30:24.452Z,99.90
2018-08-07T05:32:53.395Z,99.90
2018-08-07T05:35:22.319Z,99.90
2018-08-07T05:37:51.252Z,99.90
2018-08-07T05:40:20.217Z,99.90
2018-08-07T05:42:51.870Z,99.90
2018-08-07T05:45:20.954Z,99.90
2018-08-07T05:47:50.105Z,99.90
2018-08-07T05:50:19.725Z,99.90
2018-08-07T05:55:17.715Z,99.90
2018-08-07T05:57:46.670Z,99.90
2018-08-07T06:00:20.668Z,99.90
2018-08-07T06:02:50.606Z,99.90
2018-08-07T06:05:19.668Z,99.90
2018-08-07T06:07:49.213Z,99.90
2018-08-07T06:10:18.335Z,99.90
2018-08-07T06:12:47.340Z,99.90
2018-08-07T06:15:17.129Z,99.90
2018-08-07T06:17:46.758Z,99.90
2018-08-07T06:20:15.706Z,99.90
2018-08-07T06:22:44.649Z,99.90
2018-08-07T06:25:13.592Z,99.90
2018-08-07T06:27:42.598Z,99.90
2018-08-07T06:30:17.539Z,99.90
2018-08-07T06:32:47.321Z,99.90
2018-08-07T06:35:16.694Z,99.90
2018-08-07T06:40:21.776Z,99.90
2018-08-07T06:42:50.858Z,99.90
2018-08-07T06:45:19.993Z,99.90
2018-08-07T06:47:48.885Z,99.90
2018-08-07T06:50:19.457Z,99.90
2018-08-07T06:52:49.053Z,99.90
2018-08-07T06:55:18.076Z,99.90
2018-08-07T06:57:47.068Z,99.90
2018-08-07T07:00:18.799Z,99.90
2018-08-07T07:02:58.310Z,99.90
2018-08-07T07:05:27.159Z,99.90
2018-08-07T07:07:56.212Z,99.90
2018-08-07T07:10:25.861Z,99.90
2018-08-07T07:12:57.354Z,99.90
2018-08-07T07:15:26.813Z,99.90
2018-08-07T07:17:55.887Z,99.90
2018-08-07T07:20:24.984Z,99.90
2018-08-07T07:22:54.322Z,99.90
2018-08-07T07:25:25.877Z,99.90
2018-08-07T07:27:54.863Z,99.90
2018-08-07T07:30:25.715Z,99.90
2018-08-07T07:33:00.075Z,99.90
2018-08-07T07:35:36.398Z,99.90
2018-08-07T07:38:07.844Z,99.90
2018-08-07T07:40:37.119Z,99.90
2018-08-07T07:43:06.152Z,99.90
2018-08-07T07:45:35.330Z,99.90
2018-08-07T07:48:04.490Z,99.90
2018-08-07T07:50:34.687Z,99.90
2018-08-07T07:53:04.613Z,99.90
2018-08-07T07:55:34.503Z,99.90
2018-08-07T07:58:04.342Z,99.90
2018-08-07T08:00:33.782Z,99.90
2018-08-07T08:03:02.683Z,99.90
2018-08-07T08:05:31.649Z,99.70
2018-08-07T08:08:00.622Z,99.60
2018-08-07T08:10:29.648Z,99.90
2018-08-07T08:12:58.581Z,99.90
2018-08-07T08:15:27.686Z,99.90
2018-08-07T08:17:56.627Z,99.90
2018-08-07T08:20:26.275Z,99.90
2018-08-07T08:22:56.157Z,99.40
2018-08-07T08:25:25.458Z,99.90
2018-08-07T08:27:54.489Z,99.90
2018-08-07T08:30:23.500Z,99.90
2018-08-07T08:32:52.438Z,99.90
2018-08-07T08:35:21.393Z,99.40
2018-08-07T08:37:50.582Z,99.40
2018-08-07T08:40:20.928Z,99.50
2018-08-07T08:42:49.884Z,99.40
2018-08-07T08:45:21.413Z,98.20
2018-08-07T08:47:51.711Z,98.90
2018-08-07T08:50:21.630Z,98.00
2018-08-07T08:52:50.653Z,97.10
2018-08-07T08:55:19.633Z,95.70
2018-08-07T08:57:48.635Z,96.00
2018-08-07T09:00:21.931Z,95.30
2018-08-07T09:02:52.305Z,95.00
2018-08-07T09:05:21.213Z,94.70
2018-08-07T09:07:50.233Z,95.00
2018-08-07T09:10:30.707Z,94.60
2018-08-07T09:13:02.995Z,94.60
2018-08-07T09:15:32.014Z,95.50
2018-08-07T09:18:01.106Z,95.30
2018-08-07T09:20:31.999Z,95.20
2018-08-07T09:23:01.284Z,95.00
2018-08-07T09:25:31.186Z,95.00
2018-08-07T09:27:59.985Z,95.40
2018-08-07T09:30:30.125Z,95.60
2018-08-07T09:33:02.295Z,95.10
2018-08-07T09:35:31.680Z,94.60
2018-08-07T09:40:29.606Z,93.90
2018-08-07T09:42:59.880Z,93.80
2018-08-07T09:45:35.621Z,93.80
2018-08-07T09:48:07.651Z,93.40
2018-08-07T09:50:36.509Z,93.20
2018-08-07T09:53:08.336Z,93.10
2018-08-07T09:55:38.018Z,93.70
2018-08-07T09:58:07.808Z,93.40
2018-08-07T10:00:41.918Z,93.80
2018-08-07T10:03:11.573Z,91.80
2018-08-07T10:05:41.060Z,92.50
2018-08-07T10:08:10.350Z,92.00
2018-08-07T10:10:40.266Z,91.10
2018-08-07T10:13:12.025Z,90.10
2018-08-07T10:15:41.078Z,89.50
2018-08-07T10:18:10.208Z,90.10
2018-08-07T10:20:39.317Z,88.90
2018-08-07T10:23:09.343Z,87.30
2018-08-07T10:25:38.518Z,88.10
2018-08-07T10:28:07.908Z,87.00
2018-08-07T10:30:36.977Z,86.40
2018-08-07T10:33:08.016Z,85.00
2018-08-07T10:35:36.920Z,83.80
2018-08-07T10:38:05.901Z,85.10
2018-08-07T10:40:34.889Z,83.80
2018-08-07T10:43:04.088Z,84.20
2018-08-07T10:45:33.116Z,83.50
2018-08-07T10:48:02.011Z,83.10
2018-08-07T10:50:39.832Z,81.60
2018-08-07T10:53:09.329Z,80.30
2018-08-07T10:55:38.505Z,76.70
2018-08-07T10:58:07.776Z,77.30
2018-08-07T11:00:36.697Z,78.50
2018-08-07T11:03:06.075Z,80.60
2018-08-07T11:05:34.900Z,77.00
2018-08-07T11:08:03.864Z,77.50
2018-08-07T11:10:32.745Z,75.60
2018-08-07T11:13:01.635Z,74.50
2018-08-07T11:15:33.812Z,77.40
2018-08-07T11:18:03.179Z,77.80
2018-08-07T11:20:32.622Z,80.00
2018-08-07T11:23:02.565Z,81.90
2018-08-07T11:25:32.599Z,80.70
2018-08-07T11:28:01.797Z,79.90
2018-08-07T11:30:31.212Z,80.60
2018-08-07T11:33:01.494Z,77.90
2018-08-07T11:35:30.624Z,76.80
2018-08-07T11:38:01.696Z,74.10
2018-08-07T11:40:30.688Z,75.10
2018-08-07T11:42:59.844Z,75.00
2018-08-07T11:45:30.213Z,75.70
2018-08-07T11:48:00.317Z,75.40
2018-08-07T11:50:30.452Z,75.90
2018-08-07T11:52:59.816Z,74.50
2018-08-07T11:55:28.825Z,70.00
2018-08-07T11:57:57.821Z,67.00
2018-08-07T12:00:29.671Z,67.40
2018-08-07T12:02:58.768Z,65.10
2018-08-07T12:05:27.788Z,66.00
2018-08-07T12:07:56.842Z,64.70
2018-08-07T12:10:25.729Z,62.90
2018-08-07T12:12:54.660Z,64.10
2018-08-07T12:15:24.697Z,61.60
2018-08-07T12:17:53.994Z,59.90
2018-08-07T12:20:22.829Z,60.60
2018-08-07T12:22:51.913Z,60.30
2018-08-07T12:25:21.201Z,59.80
2018-08-07T12:27:50.147Z,60.00
2018-08-07T12:30:23.229Z,60.20
2018-08-07T12:32:52.217Z,60.50
2018-08-07T12:35:21.169Z,61.30
2018-08-07T12:37:50.110Z,62.30
2018-08-07T12:40:21.961Z,63.60
2018-08-07T12:42:51.623Z,62.60
2018-08-07T12:45:20.758Z,60.10
2018-08-07T12:47:49.996Z,60.10
2018-08-07T12:50:19.397Z,59.40
2018-08-07T12:55:19.145Z,58.10
2018-08-07T12:57:48.651Z,58.80
2018-08-07T13:00:21.334Z,60.10
2018-08-07T13:05:19.187Z,62.30
2018-08-07T13:07:48.280Z,61.10
2018-08-07T13:10:18.698Z,62.10
2018-08-07T13:12:48.285Z,60.10
2018-08-07T13:15:18.748Z,59.90
2018-08-07T13:17:48.013Z,59.50
2018-08-07T13:20:16.948Z,59.10
2018-08-07T13:22:46.599Z,58.80
2018-08-07T13:25:17.691Z,59.60
2018-08-07T13:27:46.556Z,59.90
2018-08-07T13:30:25.780Z,57.80
2018-08-07T13:32:54.797Z,57.80
2018-08-07T13:35:23.830Z,57.60
2018-08-07T13:37:53.332Z,56.40
2018-08-07T13:40:24.312Z,54.40
2018-08-07T13:42:53.419Z,52.00
2018-08-07T13:47:51.369Z,47.20
2018-08-07T13:50:24.540Z,47.70
2018-08-07T13:52:53.840Z,49.10
2018-08-07T13:55:24.069Z,49.10
2018-08-07T13:57:52.968Z,47.00
2018-08-07T14:00:23.896Z,45.70
2018-08-07T14:02:54.809Z,45.00
2018-08-07T14:07:53.446Z,45.50
2018-08-07T14:10:23.497Z,43.90
2018-08-07T14:15:28.422Z,43.00
2018-08-07T14:17:57.528Z,44.00
2018-08-07T14:20:26.826Z,44.20
2018-08-07T14:22:55.842Z,44.70
2018-08-07T14:25:26.859Z,44.00
2018-08-07T14:27:55.997Z,44.10
2018-08-07T14:30:26.402Z,44.00
2018-08-07T14:32:55.399Z,46.20
2018-08-07T14:35:24.767Z,46.90
2018-08-07T14:37:53.756Z,47.70
2018-08-07T14:40:24.137Z,48.20
2018-08-07T14:42:53.532Z,47.60
2018-08-07T14:45:25.932Z,47.20
2018-08-07T14:47:55.743Z,46.10
2018-08-07T14:50:26.581Z,44.60
2018-08-07T14:52:56.335Z,44.30
2018-08-07T14:55:25.709Z,42.80
2018-08-07T14:57:54.796Z,42.70
2018-08-07T15:00:26.243Z,42.80
2018-08-07T15:05:23.951Z,43.60
2018-08-07T15:07:52.931Z,42.70
2018-08-07T15:10:23.341Z,46.20
2018-08-07T15:12:52.221Z,48.60
2018-08-07T15:15:23.824Z,51.00
2018-08-07T15:17:52.731Z,51.70
2018-08-07T15:20:24.370Z,51.10
2018-08-07T15:22:55.703Z,52.10
2018-08-07T15:27:53.902Z,50.50
2018-08-07T15:30:25.080Z,52.00
2018-08-07T15:32:54.368Z,52.60
2018-08-07T15:35:24.934Z,52.70
2018-08-07T15:37:53.912Z,50.70
2018-08-07T15:40:23.100Z,49.70
2018-08-07T15:42:52.079Z,48.40
2018-08-07T15:45:24.200Z,45.60
2018-08-07T15:47:53.591Z,45.20
2018-08-07T15:50:23.365Z,45.90
2018-08-07T15:52:53.666Z,45.00
2018-08-07T15:55:26.191Z,45.10
2018-08-07T15:57:55.197Z,43.70
2018-08-07T16:00:28.557Z,42.70
2018-08-07T16:02:57.567Z,43.50
2018-08-07T16:05:28.821Z,43.50
2018-08-07T16:07:57.789Z,42.80
2018-08-07T16:10:26.852Z,45.50
2018-08-07T16:12:56.022Z,47.80
2018-08-07T16:15:25.074Z,49.10
2018-08-07T16:17:54.999Z,48.00
2018-08-07T16:20:24.327Z,48.20
2018-08-07T16:22:53.377Z,48.40
2018-08-07T16:25:22.769Z,48.50
2018-08-07T16:27:53.021Z,48.10
2018-08-07T16:30:26.721Z,49.50
2018-08-07T16:32:55.945Z,50.00
2018-08-07T16:35:24.883Z,50.10
2018-08-07T16:37:54.633Z,50.40
2018-08-07T16:40:24.572Z,50.20
2018-08-07T16:42:54.829Z,50.10
2018-08-07T16:45:24.646Z,50.30
2018-08-07T16:47:53.685Z,49.30
2018-08-07T16:50:24.871Z,46.80
2018-08-07T16:52:54.662Z,45.10
2018-08-07T16:55:25.149Z,43.70
2018-08-07T16:57:54.200Z,44.00
2018-08-07T17:00:23.273Z,42.00
2018-08-07T17:02:52.284Z,41.20
2018-08-07T17:05:21.128Z,41.60
2018-08-07T17:07:50.330Z,43.00
2018-08-07T17:10:24.854Z,43.20
2018-08-07T17:12:53.852Z,43.60
2018-08-07T17:15:23.016Z,44.50
2018-08-07T17:17:52.059Z,43.60
2018-08-07T17:20:22.077Z,43.50
2018-08-07T17:22:52.093Z,43.50
2018-08-07T17:25:22.003Z,43.00
2018-08-07T17:27:51.352Z,42.90
2018-08-07T17:30:26.361Z,42.20
2018-08-07T17:32:55.341Z,42.30
2018-08-07T17:35:25.412Z,42.60
2018-08-07T17:37:56.118Z,40.60
2018-08-07T17:40:26.586Z,40.30
2018-08-07T17:42:56.763Z,40.30
2018-08-07T17:45:25.652Z,38.90
2018-08-07T17:47:54.566Z,39.30
2018-08-07T17:50:24.946Z,40.20
2018-08-07T17:52:56.317Z,42.70
2018-08-07T17:55:25.183Z,45.80
2018-08-07T17:57:55.326Z,49.60
2018-08-07T18:00:24.895Z,52.30
2018-08-07T18:02:53.977Z,52.80
2018-08-07T18:05:23.111Z,54.30
2018-08-07T18:08:25.861Z,55.70
2018-08-07T18:10:54.929Z,56.40
2018-08-07T18:13:23.932Z,58.80
2018-08-07T18:15:52.864Z,61.10
2018-08-07T18:18:21.720Z,61.20
2018-08-07T18:20:50.656Z,58.00
2018-08-07T18:23:19.517Z,56.70
2018-08-07T18:25:48.430Z,56.30
2018-08-07T18:28:17.285Z,58.80
2018-08-07T18:30:46.200Z,60.60
2018-08-07T18:33:15.099Z,59.60
2018-08-07T18:35:44.064Z,60.50
2018-08-07T18:38:12.915Z,57.90
2018-08-07T18:40:41.774Z,58.10
2018-08-07T18:43:10.987Z,59.80
2018-08-07T18:45:39.872Z,61.90
2018-08-07T18:48:08.765Z,61.60
2018-08-07T18:50:37.708Z,62.70
2018-08-07T18:53:06.687Z,63.10
2018-08-07T18:55:36.518Z,61.70
2018-08-07T18:58:05.454Z,62.50
2018-08-07T19:00:34.401Z,64.20
2018-08-07T19:03:03.657Z,65.80
2018-08-07T19:05:32.552Z,66.60
2018-08-07T19:08:01.466Z,68.20
2018-08-07T19:10:30.510Z,69.40
2018-08-07T19:12:59.452Z,70.80
2018-08-07T19:15:28.364Z,71.60
2018-08-07T19:17:57.315Z,72.40
2018-08-07T19:20:27.210Z,73.00
2018-08-07T19:22:56.152Z,73.20
2018-08-07T19:25:25.098Z,74.20
2018-08-07T19:27:54.142Z,74.20
2018-08-07T19:30:24.705Z,74.10
2018-08-07T19:32:53.918Z,74.80
2018-08-07T19:35:23.458Z,75.60
2018-08-07T19:37:52.937Z,76.70
2018-08-07T19:40:22.390Z,77.00
2018-08-07T19:42:51.613Z,78.00
2018-08-07T19:45:20.745Z,78.30
2018-08-07T19:47:49.659Z,79.10
2018-08-07T19:50:20.431Z,79.10
2018-08-07T19:52:49.376Z,79.70
2018-08-07T19:55:20.102Z,80.00
2018-08-07T19:57:55.031Z,80.10
2018-08-07T20:03:02.135Z,80.10
2018-08-07T20:05:31.050Z,80.10
2018-08-07T20:07:59.922Z,80.20
2018-08-07T20:10:28.855Z,80.40
2018-08-07T20:12:57.775Z,80.80
2018-08-07T20:15:28.038Z,81.20
2018-08-07T20:17:57.616Z,81.60
2018-08-07T20:20:26.787Z,81.90
2018-08-07T20:22:56.729Z,81.80
2018-08-07T20:25:25.854Z,82.00
2018-08-07T20:27:55.314Z,82.30
2018-08-07T20:30:24.778Z,82.10
2018-08-07T20:32:55.792Z,82.40
2018-08-07T20:35:25.251Z,82.90
2018-08-07T20:37:54.158Z,82.80
2018-08-07T20:40:25.980Z,82.60
2018-08-07T20:42:56.059Z,82.60
2018-08-07T20:45:26.690Z,83.30
2018-08-07T20:47:56.558Z,83.10
2018-08-07T20:50:28.955Z,83.20
2018-08-07T20:52:57.946Z,83.30
2018-08-07T20:55:27.064Z,83.40
2018-08-07T20:57:56.349Z,83.50
2018-08-07T21:00:27.479Z,83.20
2018-08-07T21:02:56.509Z,83.60
2018-08-07T21:05:26.185Z,84.10
2018-08-07T21:07:55.364Z,84.40
2018-08-07T21:10:26.046Z,84.30
2018-08-07T21:12:56.047Z,84.10
2018-08-07T21:15:25.104Z,84.50
2018-08-07T21:17:54.276Z,84.30
2018-08-07T21:20:24.359Z,84.20
2018-08-07T21:22:58.314Z,84.40
2018-08-07T21:25:27.398Z,84.00
2018-08-07T21:27:58.885Z,84.30
2018-08-07T21:30:30.191Z,83.20
2018-08-07T21:32:59.177Z,83.20
2018-08-07T21:35:28.144Z,82.90
2018-08-07T21:37:57.207Z,82.60
2018-08-07T21:40:26.281Z,82.60
2018-08-07T21:42:56.646Z,82.50
2018-08-07T21:45:25.974Z,83.00
2018-08-07T21:47:55.109Z,83.00
2018-08-07T21:50:25.353Z,83.90
2018-08-07T21:52:55.342Z,84.70
2018-08-07T21:55:24.428Z,85.30
2018-08-07T21:57:53.557Z,86.30
2018-08-07T22:00:28.642Z,86.50
2018-08-07T22:02:57.754Z,87.20
2018-08-07T22:05:26.745Z,87.40
2018-08-07T22:07:55.821Z,88.10
2018-08-07T22:10:25.466Z,87.90
2018-08-07T22:12:54.881Z,87.10
2018-08-07T22:15:23.920Z,87.10
2018-08-07T22:17:52.921Z,87.20
2018-08-07T22:20:21.865Z,87.30
2018-08-07T22:22:50.816Z,87.90
2018-08-07T22:25:19.672Z,87.10
2018-08-07T22:27:48.590Z,87.00
2018-08-07T22:30:20.988Z,87.00
2018-08-07T22:32:50.365Z,87.60
2018-08-07T22:35:19.512Z,88.50
2018-08-07T22:37:49.708Z,88.90
2018-08-07T22:40:18.692Z,88.70
2018-08-07T22:42:47.757Z,88.50
2018-08-07T22:45:17.814Z,89.00
2018-08-07T22:47:47.189Z,89.50
2018-08-07T22:50:18.380Z,89.40
2018-08-07T22:52:47.597Z,89.50
2018-08-07T22:55:19.125Z,90.00
2018-08-07T22:57:48.044Z,90.10
2018-08-07T23:00:20.896Z,90.10
2018-08-07T23:02:49.663Z,90.30
2018-08-07T23:05:19.112Z,90.10
2018-08-07T23:07:48.115Z,90.10
2018-08-07T23:10:20.789Z,90.20
2018-08-07T23:12:49.882Z,90.30
2018-08-07T23:15:20.310Z,90.30
2018-08-07T23:17:49.323Z,90.50
2018-08-07T23:20:20.027Z,90.50
2018-08-07T23:22:49.389Z,90.70
2018-08-07T23:25:18.660Z,90.90
2018-08-07T23:27:47.637Z,91.20
2018-08-07T23:30:22.025Z,91.30
2018-08-07T23:32:50.987Z,91.50
2018-08-07T23:35:20.661Z,91.70
2018-08-07T23:37:49.696Z,91.80
2018-08-07T23:40:18.669Z,92.00
2018-08-07T23:42:47.581Z,92.10
2018-08-07T23:45:16.630Z,92.30
2018-08-07T23:47:45.952Z,92.50
2018-08-07T23:50:15.147Z,92.80
2018-08-07T23:52:44.047Z,93.10
2018-08-07T23:55:13.072Z,93.40
2018-08-07T23:57:41.973Z,93.70
